sensor_id;sensor_type;location;lat;lon;timestamp;P1;durP1;ratioP1;P2;durP2;ratioP2
14698;SDS011;7439;50.804;4.602;2023-06-14T00:00:33;8.60;;;7.80;;
14698;SDS011;7439;50.804;4.602;2023-06-14T00:03:01;8.83;;;7.50;;
14698;SDS011;7439;50.804;4.602;2023-06-14T00:05:30;9.13;;;8.33;;
14698;SDS011;7439;50.804;4.602;2023-06-14T00:07:58;8.63;;;7.83;;
14698;SDS011;7439;50.804;4.602;2023-06-14T00:10:26;8.40;;;7.60;;
14698;SDS011;7439;50.804;4.602;2023-06-14T00:12:56;8.43;;;7.63;;
14698;SDS011;7439;50.804;4.602;2023-06-14T00:15:24;8.60;;;7.67;;
14698;SDS011;7439;50.804;4.602;2023-06-14T00:17:53;9.00;;;8.10;;
14698;SDS011;7439;50.804;4.602;2023-06-14T00:20:21;10.50;;;8.10;;
14698;SDS011;7439;50.804;4.602;2023-06-14T00:22:49;8.50;;;7.60;;
14698;SDS011;7439;50.804;4.602;2023-06-14T00:25:20;10.53;;;7.87;;
14698;SDS011;7439;50.804;4.602;2023-06-14T00:27:48;8.67;;;7.93;;
14698;SDS011;7439;50.804;4.602;2023-06-14T00:30:16;8.90;;;8.10;;
14698;SDS011;7439;50.804;4.602;2023-06-14T00:32:44;8.60;;;7.87;;
14698;SDS011;7439;50.804;4.602;2023-06-14T00:35:13;9.63;;;7.87;;
14698;SDS011;7439;50.804;4.602;2023-06-14T00:37:40;9.93;;;8.47;;
14698;SDS011;7439;50.804;4.602;2023-06-14T00:40:08;8.20;;;7.60;;
14698;SDS011;7439;50.804;4.602;2023-06-14T00:42:36;9.60;;;8.70;;
14698;SDS011;7439;50.804;4.602;2023-06-14T00:45:04;8.07;;;7.30;;
14698;SDS011;7439;50.804;4.602;2023-06-14T00:47:31;9.30;;;8.40;;
14698;SDS011;7439;50.804;4.602;2023-06-14T00:49:59;9.63;;;8.67;;
14698;SDS011;7439;50.804;4.602;2023-06-14T00:52:29;9.17;;;8.27;;
14698;SDS011;7439;50.804;4.602;2023-06-14T00:54:57;9.23;;;8.43;;
14698;SDS011;7439;50.804;4.602;2023-06-14T00:57:25;11.93;;;9.07;;
14698;SDS011;7439;50.804;4.602;2023-06-14T00:59:54;13.27;;;10.30;;
14698;SDS011;7439;50.804;4.602;2023-06-14T01:02:22;9.20;;;8.30;;
14698;SDS011;7439;50.804;4.602;2023-06-14T01:04:52;9.60;;;8.57;;
14698;SDS011;7439;50.804;4.602;2023-06-14T01:07:23;8.33;;;7.63;;
14698;SDS011;7439;50.804;4.602;2023-06-14T01:09:58;9.43;;;8.63;;
14698;SDS011;7439;50.804;4.602;2023-06-14T01:12:28;9.60;;;8.60;;
14698;SDS011;7439;50.804;4.602;2023-06-14T01:14:59;9.93;;;8.93;;
14698;SDS011;7439;50.804;4.602;2023-06-14T01:17:29;8.70;;;8.00;;
14698;SDS011;7439;50.804;4.602;2023-06-14T01:19:58;9.07;;;8.27;;
14698;SDS011;7439;50.804;4.602;2023-06-14T01:22:25;8.80;;;8.00;;
14698;SDS011;7439;50.804;4.602;2023-06-14T01:24:55;9.30;;;8.27;;
14698;SDS011;7439;50.804;4.602;2023-06-14T01:27:23;9.40;;;8.60;;
14698;SDS011;7439;50.804;4.602;2023-06-14T01:29:54;9.37;;;8.53;;
14698;SDS011;7439;50.804;4.602;2023-06-14T01:32:23;9.80;;;8.90;;
14698;SDS011;7439;50.804;4.602;2023-06-14T01:34:50;9.40;;;8.00;;
14698;SDS011;7439;50.804;4.602;2023-06-14T01:37:18;9.57;;;8.67;;
14698;SDS011;7439;50.804;4.602;2023-06-14T01:39:45;8.93;;;7.73;;
14698;SDS011;7439;50.804;4.602;2023-06-14T01:42:16;9.70;;;8.80;;
14698;SDS011;7439;50.804;4.602;2023-06-14T01:44:44;11.57;;;9.20;;
14698;SDS011;7439;50.804;4.602;2023-06-14T01:47:12;9.60;;;8.77;;
14698;SDS011;7439;50.804;4.602;2023-06-14T01:49:39;8.93;;;8.17;;
14698;SDS011;7439;50.804;4.602;2023-06-14T01:52:07;9.53;;;8.60;;
14698;SDS011;7439;50.804;4.602;2023-06-14T01:54:35;9.83;;;8.77;;
14698;SDS011;7439;50.804;4.602;2023-06-14T01:57:07;9.80;;;8.80;;
14698;SDS011;7439;50.804;4.602;2023-06-14T01:59:38;9.33;;;8.53;;
14698;SDS011;7439;50.804;4.602;2023-06-14T02:02:05;9.60;;;8.70;;
14698;SDS011;7439;50.804;4.602;2023-06-14T02:04:33;9.70;;;8.80;;
14698;SDS011;7439;50.804;4.602;2023-06-14T02:07:00;9.73;;;8.87;;
14698;SDS011;7439;50.804;4.602;2023-06-14T02:09:27;9.13;;;8.30;;
14698;SDS011;7439;50.804;4.602;2023-06-14T02:11:55;11.10;;;10.00;;
14698;SDS011;7439;50.804;4.602;2023-06-14T02:14:22;9.30;;;8.40;;
14698;SDS011;7439;50.804;4.602;2023-06-14T02:16:51;10.03;;;8.97;;
14698;SDS011;7439;50.804;4.602;2023-06-14T02:19:19;9.80;;;8.73;;
14698;SDS011;7439;50.804;4.602;2023-06-14T02:21:47;9.67;;;8.77;;
14698;SDS011;7439;50.804;4.602;2023-06-14T02:24:14;9.93;;;9.00;;
14698;SDS011;7439;50.804;4.602;2023-06-14T02:26:43;11.87;;;9.50;;
14698;SDS011;7439;50.804;4.602;2023-06-14T02:29:11;10.00;;;9.10;;
14698;SDS011;7439;50.804;4.602;2023-06-14T02:31:40;9.77;;;8.97;;
14698;SDS011;7439;50.804;4.602;2023-06-14T02:34:09;10.13;;;9.13;;
14698;SDS011;7439;50.804;4.602;2023-06-14T02:36:36;11.60;;;9.60;;
14698;SDS011;7439;50.804;4.602;2023-06-14T02:39:07;10.57;;;9.63;;
14698;SDS011;7439;50.804;4.602;2023-06-14T02:41:35;10.07;;;9.13;;
14698;SDS011;7439;50.804;4.602;2023-06-14T02:44:03;11.10;;;9.67;;
14698;SDS011;7439;50.804;4.602;2023-06-14T02:46:30;9.83;;;8.83;;
14698;SDS011;7439;50.804;4.602;2023-06-14T02:48:58;10.60;;;9.53;;
14698;SDS011;7439;50.804;4.602;2023-06-14T02:51:27;9.90;;;9.00;;
14698;SDS011;7439;50.804;4.602;2023-06-14T02:53:54;11.53;;;9.80;;
14698;SDS011;7439;50.804;4.602;2023-06-14T02:56:22;9.53;;;8.63;;
14698;SDS011;7439;50.804;4.602;2023-06-14T02:58:51;11.37;;;9.30;;
14698;SDS011;7439;50.804;4.602;2023-06-14T03:01:18;9.53;;;8.73;;
14698;SDS011;7439;50.804;4.602;2023-06-14T03:03:46;10.90;;;9.87;;
14698;SDS011;7439;50.804;4.602;2023-06-14T03:06:14;10.70;;;9.70;;
14698;SDS011;7439;50.804;4.602;2023-06-14T03:08:43;12.43;;;10.03;;
14698;SDS011;7439;50.804;4.602;2023-06-14T03:11:11;10.43;;;9.33;;
14698;SDS011;7439;50.804;4.602;2023-06-14T03:13:38;10.03;;;9.13;;
14698;SDS011;7439;50.804;4.602;2023-06-14T03:16:06;10.00;;;9.10;;
14698;SDS011;7439;50.804;4.602;2023-06-14T03:18:36;10.23;;;9.17;;
14698;SDS011;7439;50.804;4.602;2023-06-14T03:21:07;11.77;;;10.27;;
14698;SDS011;7439;50.804;4.602;2023-06-14T03:23:36;10.07;;;9.10;;
14698;SDS011;7439;50.804;4.602;2023-06-14T03:26:07;10.53;;;9.53;;
14698;SDS011;7439;50.804;4.602;2023-06-14T03:28:38;12.67;;;9.70;;
14698;SDS011;7439;50.804;4.602;2023-06-14T03:31:05;11.07;;;10.00;;
14698;SDS011;7439;50.804;4.602;2023-06-14T03:33:34;10.93;;;9.90;;
14698;SDS011;7439;50.804;4.602;2023-06-14T03:36:01;11.70;;;10.60;;
14698;SDS011;7439;50.804;4.602;2023-06-14T03:38:29;9.20;;;8.00;;
14698;SDS011;7439;50.804;4.602;2023-06-14T03:40:56;8.93;;;8.03;;
14698;SDS011;7439;50.804;4.602;2023-06-14T03:43:25;9.47;;;7.60;;
14698;SDS011;7439;50.804;4.602;2023-06-14T03:45:52;14.80;;;9.27;;
14698;SDS011;7439;50.804;4.602;2023-06-14T03:48:19;9.63;;;8.00;;
14698;SDS011;7439;50.804;4.602;2023-06-14T03:50:47;11.83;;;7.90;;
14698;SDS011;7439;50.804;4.602;2023-06-14T03:53:14;8.43;;;7.63;;
14698;SDS011;7439;50.804;4.602;2023-06-14T03:55:42;9.90;;;8.97;;
14698;SDS011;7439;50.804;4.602;2023-06-14T03:58:10;9.87;;;8.90;;
14698;SDS011;7439;50.804;4.602;2023-06-14T04:00:40;13.47;;;9.43;;
14698;SDS011;7439;50.804;4.602;2023-06-14T04:03:09;10.63;;;9.60;;
14698;SDS011;7439;50.804;4.602;2023-06-14T04:05:39;12.73;;;10.17;;
14698;SDS011;7439;50.804;4.602;2023-06-14T04:08:07;10.67;;;9.63;;
14698;SDS011;7439;50.804;4.602;2023-06-14T04:10:35;11.20;;;10.00;;
14698;SDS011;7439;50.804;4.602;2023-06-14T04:13:03;10.57;;;9.47;;
14698;SDS011;7439;50.804;4.602;2023-06-14T04:15:31;11.50;;;9.53;;
14698;SDS011;7439;50.804;4.602;2023-06-14T04:18:00;12.60;;;11.00;;
14698;SDS011;7439;50.804;4.602;2023-06-14T04:20:27;12.07;;;10.20;;
14698;SDS011;7439;50.804;4.602;2023-06-14T04:22:56;11.37;;;9.57;;
14698;SDS011;7439;50.804;4.602;2023-06-14T04:25:26;10.33;;;9.33;;
14698;SDS011;7439;50.804;4.602;2023-06-14T04:27:56;12.20;;;10.30;;
14698;SDS011;7439;50.804;4.602;2023-06-14T04:30:24;11.33;;;9.80;;
14698;SDS011;7439;50.804;4.602;2023-06-14T04:32:53;10.87;;;9.67;;
14698;SDS011;7439;50.804;4.602;2023-06-14T04:35:22;11.33;;;10.33;;
14698;SDS011;7439;50.804;4.602;2023-06-14T04:37:50;11.47;;;10.30;;
14698;SDS011;7439;50.804;4.602;2023-06-14T04:40:18;12.40;;;10.43;;
14698;SDS011;7439;50.804;4.602;2023-06-14T04:42:45;11.20;;;10.20;;
14698;SDS011;7439;50.804;4.602;2023-06-14T04:45:14;10.87;;;9.87;;
14698;SDS011;7439;50.804;4.602;2023-06-14T04:47:41;11.23;;;10.23;;
14698;SDS011;7439;50.804;4.602;2023-06-14T04:50:10;13.03;;;10.40;;
14698;SDS011;7439;50.804;4.602;2023-06-14T04:52:40;13.07;;;11.67;;
14698;SDS011;7439;50.804;4.602;2023-06-14T04:55:08;10.70;;;9.33;;
14698;SDS011;7439;50.804;4.602;2023-06-14T04:57:35;14.70;;;9.80;;
14698;SDS011;7439;50.804;4.602;2023-06-14T05:00:04;13.27;;;10.00;;
14698;SDS011;7439;50.804;4.602;2023-06-14T05:02:32;13.07;;;10.37;;
14698;SDS011;7439;50.804;4.602;2023-06-14T05:05:00;11.77;;;10.57;;
14698;SDS011;7439;50.804;4.602;2023-06-14T05:07:28;10.90;;;9.90;;
14698;SDS011;7439;50.804;4.602;2023-06-14T05:09:58;9.27;;;8.33;;
14698;SDS011;7439;50.804;4.602;2023-06-14T05:12:25;10.13;;;9.13;;
14698;SDS011;7439;50.804;4.602;2023-06-14T05:14:54;11.83;;;9.27;;
14698;SDS011;7439;50.804;4.602;2023-06-14T05:17:23;9.47;;;8.57;;
14698;SDS011;7439;50.804;4.602;2023-06-14T05:19:53;9.90;;;7.93;;
14698;SDS011;7439;50.804;4.602;2023-06-14T05:22:21;9.27;;;8.37;;
14698;SDS011;7439;50.804;4.602;2023-06-14T05:24:49;9.10;;;8.30;;
14698;SDS011;7439;50.804;4.602;2023-06-14T05:27:18;8.77;;;7.77;;
14698;SDS011;7439;50.804;4.602;2023-06-14T05:29:45;9.03;;;8.17;;
14698;SDS011;7439;50.804;4.602;2023-06-14T05:32:12;10.97;;;7.97;;
14698;SDS011;7439;50.804;4.602;2023-06-14T05:34:40;7.60;;;6.90;;
14698;SDS011;7439;50.804;4.602;2023-06-14T05:37:08;8.70;;;7.80;;
14698;SDS011;7439;50.804;4.602;2023-06-14T05:39:38;8.57;;;7.77;;
14698;SDS011;7439;50.804;4.602;2023-06-14T05:42:07;8.53;;;7.27;;
14698;SDS011;7439;50.804;4.602;2023-06-14T05:44:36;7.97;;;7.17;;
14698;SDS011;7439;50.804;4.602;2023-06-14T05:47:04;11.47;;;7.53;;
14698;SDS011;7439;50.804;4.602;2023-06-14T05:49:31;9.30;;;8.40;;
14698;SDS011;7439;50.804;4.602;2023-06-14T05:51:59;9.13;;;8.17;;
14698;SDS011;7439;50.804;4.602;2023-06-14T05:54:27;8.80;;;7.77;;
14698;SDS011;7439;50.804;4.602;2023-06-14T05:56:54;8.97;;;8.20;;
14698;SDS011;7439;50.804;4.602;2023-06-14T05:59:26;10.27;;;7.63;;
14698;SDS011;7439;50.804;4.602;2023-06-14T06:01:55;8.90;;;7.87;;
14698;SDS011;7439;50.804;4.602;2023-06-14T06:04:22;9.77;;;6.80;;
14698;SDS011;7439;50.804;4.602;2023-06-14T06:06:50;11.37;;;8.57;;
14698;SDS011;7439;50.804;4.602;2023-06-14T06:09:18;9.77;;;8.87;;
14698;SDS011;7439;50.804;4.602;2023-06-14T06:11:45;9.83;;;7.90;;
14698;SDS011;7439;50.804;4.602;2023-06-14T06:14:12;9.63;;;8.10;;
14698;SDS011;7439;50.804;4.602;2023-06-14T06:16:40;8.53;;;7.50;;
14698;SDS011;7439;50.804;4.602;2023-06-14T06:19:09;8.60;;;7.80;;
14698;SDS011;7439;50.804;4.602;2023-06-14T06:21:37;11.80;;;7.97;;
14698;SDS011;7439;50.804;4.602;2023-06-14T06:24:07;12.47;;;7.77;;
14698;SDS011;7439;50.804;4.602;2023-06-14T06:26:35;10.33;;;7.93;;
14698;SDS011;7439;50.804;4.602;2023-06-14T06:29:02;8.80;;;8.00;;
14698;SDS011;7439;50.804;4.602;2023-06-14T06:31:30;7.70;;;6.93;;
14698;SDS011;7439;50.804;4.602;2023-06-14T06:33:57;9.27;;;8.20;;
14698;SDS011;7439;50.804;4.602;2023-06-14T06:36:26;9.17;;;7.40;;
14698;SDS011;7439;50.804;4.602;2023-06-14T06:38:53;8.57;;;7.67;;
14698;SDS011;7439;50.804;4.602;2023-06-14T06:41:21;8.87;;;8.00;;
14698;SDS011;7439;50.804;4.602;2023-06-14T06:43:48;9.70;;;7.10;;
14698;SDS011;7439;50.804;4.602;2023-06-14T06:46:15;9.03;;;7.10;;
14698;SDS011;7439;50.804;4.602;2023-06-14T06:48:44;7.63;;;6.77;;
14698;SDS011;7439;50.804;4.602;2023-06-14T06:51:11;10.27;;;6.80;;
14698;SDS011;7439;50.804;4.602;2023-06-14T06:53:43;8.47;;;6.97;;
14698;SDS011;7439;50.804;4.602;2023-06-14T06:56:11;7.40;;;6.70;;
14698;SDS011;7439;50.804;4.602;2023-06-14T06:58:38;7.40;;;6.60;;
14698;SDS011;7439;50.804;4.602;2023-06-14T07:01:05;7.50;;;6.33;;
14698;SDS011;7439;50.804;4.602;2023-06-14T07:03:34;7.73;;;6.83;;
14698;SDS011;7439;50.804;4.602;2023-06-14T07:06:01;7.07;;;6.37;;
14698;SDS011;7439;50.804;4.602;2023-06-14T07:08:29;7.80;;;6.60;;
14698;SDS011;7439;50.804;4.602;2023-06-14T07:10:58;6.83;;;6.17;;
14698;SDS011;7439;50.804;4.602;2023-06-14T07:13:25;6.70;;;5.87;;
14698;SDS011;7439;50.804;4.602;2023-06-14T07:15:53;9.27;;;7.53;;
14698;SDS011;7439;50.804;4.602;2023-06-14T07:18:21;7.07;;;6.37;;
14698;SDS011;7439;50.804;4.602;2023-06-14T07:20:49;8.30;;;5.83;;
14698;SDS011;7439;50.804;4.602;2023-06-14T07:23:17;7.70;;;6.07;;
14698;SDS011;7439;50.804;4.602;2023-06-14T07:25:44;9.73;;;6.73;;
14698;SDS011;7439;50.804;4.602;2023-06-14T07:28:13;6.50;;;5.90;;
14698;SDS011;7439;50.804;4.602;2023-06-14T07:30:41;6.03;;;5.43;;
14698;SDS011;7439;50.804;4.602;2023-06-14T07:33:08;6.20;;;5.57;;
14698;SDS011;7439;50.804;4.602;2023-06-14T07:35:37;8.57;;;5.53;;
14698;SDS011;7439;50.804;4.602;2023-06-14T07:38:05;8.83;;;7.50;;
14698;SDS011;7439;50.804;4.602;2023-06-14T07:40:32;8.67;;;6.40;;
14698;SDS011;7439;50.804;4.602;2023-06-14T07:43:00;9.37;;;6.30;;
14698;SDS011;7439;50.804;4.602;2023-06-14T07:45:29;7.23;;;6.33;;
14698;SDS011;7439;50.804;4.602;2023-06-14T07:47:56;5.80;;;5.20;;
14698;SDS011;7439;50.804;4.602;2023-06-14T07:50:23;7.37;;;5.33;;
14698;SDS011;7439;50.804;4.602;2023-06-14T07:52:51;7.50;;;5.07;;
14698;SDS011;7439;50.804;4.602;2023-06-14T07:55:18;5.97;;;5.47;;
14698;SDS011;7439;50.804;4.602;2023-06-14T07:57:46;9.30;;;5.43;;
14698;SDS011;7439;50.804;4.602;2023-06-14T08:00:13;6.73;;;6.03;;
14698;SDS011;7439;50.804;4.602;2023-06-14T08:02:44;6.93;;;5.47;;
14698;SDS011;7439;50.804;4.602;2023-06-14T08:05:12;5.50;;;5.00;;
14698;SDS011;7439;50.804;4.602;2023-06-14T08:07:39;6.60;;;4.83;;
14698;SDS011;7439;50.804;4.602;2023-06-14T08:10:08;5.90;;;5.10;;
14698;SDS011;7439;50.804;4.602;2023-06-14T08:12:36;5.93;;;5.33;;
14698;SDS011;7439;50.804;4.602;2023-06-14T08:15:25;7.30;;;5.13;;
14698;SDS011;7439;50.804;4.602;2023-06-14T08:18:00;6.83;;;5.40;;
14698;SDS011;7439;50.804;4.602;2023-06-14T08:20:28;5.30;;;4.80;;
14698;SDS011;7439;50.804;4.602;2023-06-14T08:22:56;6.30;;;5.13;;
14698;SDS011;7439;50.804;4.602;2023-06-14T08:25:24;8.83;;;5.50;;
14698;SDS011;7439;50.804;4.602;2023-06-14T08:28:03;6.77;;;5.03;;
14698;SDS011;7439;50.804;4.602;2023-06-14T08:30:32;5.80;;;5.00;;
14698;SDS011;7439;50.804;4.602;2023-06-14T08:33:17;8.90;;;5.50;;
14698;SDS011;7439;50.804;4.602;2023-06-14T08:35:44;5.43;;;4.83;;
14698;SDS011;7439;50.804;4.602;2023-06-14T08:38:14;7.20;;;4.90;;
14698;SDS011;7439;50.804;4.602;2023-06-14T08:41:30;7.33;;;5.47;;
14698;SDS011;7439;50.804;4.602;2023-06-14T08:44:14;7.17;;;4.40;;
14698;SDS011;7439;50.804;4.602;2023-06-14T08:47:07;8.20;;;5.30;;
14698;SDS011;7439;50.804;4.602;2023-06-14T08:56:09;6.40;;;4.30;;
14698;SDS011;7439;50.804;4.602;2023-06-14T08:58:38;6.27;;;4.80;;
14698;SDS011;7439;50.804;4.602;2023-06-14T09:01:08;5.93;;;5.17;;
14698;SDS011;7439;50.804;4.602;2023-06-14T09:03:39;7.70;;;4.73;;
14698;SDS011;7439;50.804;4.602;2023-06-14T09:06:08;5.90;;;4.87;;
14698;SDS011;7439;50.804;4.602;2023-06-14T09:17:42;6.73;;;4.90;;
14698;SDS011;7439;50.804;4.602;2023-06-14T09:20:10;6.53;;;5.87;;
14698;SDS011;7439;50.804;4.602;2023-06-14T09:22:38;7.53;;;4.83;;
14698;SDS011;7439;50.804;4.602;2023-06-14T09:28:11;5.13;;;4.27;;
14698;SDS011;7439;50.804;4.602;2023-06-14T09:30:56;6.67;;;5.20;;
14698;SDS011;7439;50.804;4.602;2023-06-14T09:36:54;5.40;;;4.90;;
14698;SDS011;7439;50.804;4.602;2023-06-14T09:39:48;6.57;;;5.17;;
14698;SDS011;7439;50.804;4.602;2023-06-14T09:42:16;9.07;;;4.50;;
14698;SDS011;7439;50.804;4.602;2023-06-14T09:44:44;5.87;;;4.73;;
14698;SDS011;7439;50.804;4.602;2023-06-14T09:47:13;11.53;;;5.27;;
14698;SDS011;7439;50.804;4.602;2023-06-14T09:49:41;5.03;;;4.37;;
14698;SDS011;7439;50.804;4.602;2023-06-14T09:52:10;5.83;;;4.33;;
14698;SDS011;7439;50.804;4.602;2023-06-14T09:57:34;4.00;;;3.70;;
14698;SDS011;7439;50.804;4.602;2023-06-14T10:00:03;5.13;;;3.70;;
14698;SDS011;7439;50.804;4.602;2023-06-14T10:05:25;4.83;;;3.77;;
14698;SDS011;7439;50.804;4.602;2023-06-14T10:08:17;4.70;;;4.30;;
14698;SDS011;7439;50.804;4.602;2023-06-14T10:11:01;4.20;;;3.80;;
14698;SDS011;7439;50.804;4.602;2023-06-14T10:16:45;4.17;;;3.77;;
14698;SDS011;7439;50.804;4.602;2023-06-14T10:19:51;3.97;;;3.53;;
14698;SDS011;7439;50.804;4.602;2023-06-14T10:22:23;4.30;;;3.90;;
14698;SDS011;7439;50.804;4.602;2023-06-14T10:24:56;4.50;;;3.30;;
14698;SDS011;7439;50.804;4.602;2023-06-14T10:27:23;5.03;;;3.83;;
14698;SDS011;7439;50.804;4.602;2023-06-14T10:30:03;4.35;;;3.95;;
14698;SDS011;7439;50.804;4.602;2023-06-14T10:32:31;3.90;;;3.58;;
14698;SDS011;7439;50.804;4.602;2023-06-14T10:37:46;5.50;;;3.97;;
14698;SDS011;7439;50.804;4.602;2023-06-14T10:40:20;4.28;;;3.88;;
14698;SDS011;7439;50.804;4.602;2023-06-14T10:46:12;4.68;;;3.92;;
14698;SDS011;7439;50.804;4.602;2023-06-14T10:48:41;5.38;;;3.75;;
14698;SDS011;7439;50.804;4.602;2023-06-14T10:51:29;4.15;;;3.80;;
14698;SDS011;7439;50.804;4.602;2023-06-14T10:53:58;7.57;;;3.95;;
14698;SDS011;7439;50.804;4.602;2023-06-14T10:56:28;5.35;;;4.55;;
14698;SDS011;7439;50.804;4.602;2023-06-14T10:58:56;6.05;;;4.88;;
14698;SDS011;7439;50.804;4.602;2023-06-14T11:01:31;4.27;;;3.13;;
14698;SDS011;7439;50.804;4.602;2023-06-14T11:04:03;4.10;;;3.00;;
14698;SDS011;7439;50.804;4.602;2023-06-14T11:06:36;3.93;;;3.10;;
14698;SDS011;7439;50.804;4.602;2023-06-14T11:11:55;3.50;;;3.20;;
14698;SDS011;7439;50.804;4.602;2023-06-14T11:14:23;3.60;;;3.10;;
14698;SDS011;7439;50.804;4.602;2023-06-14T11:16:51;3.23;;;2.93;;
14698;SDS011;7439;50.804;4.602;2023-06-14T11:19:18;3.33;;;2.77;;
14698;SDS011;7439;50.804;4.602;2023-06-14T11:21:47;3.10;;;2.90;;
14698;SDS011;7439;50.804;4.602;2023-06-14T11:24:16;3.28;;;2.63;;
14698;SDS011;7439;50.804;4.602;2023-06-14T11:26:44;4.65;;;3.40;;
14698;SDS011;7439;50.804;4.602;2023-06-14T11:29:14;3.90;;;3.20;;
14698;SDS011;7439;50.804;4.602;2023-06-14T11:31:43;3.60;;;3.30;;
14698;SDS011;7439;50.804;4.602;2023-06-14T11:34:11;3.65;;;3.08;;
14698;SDS011;7439;50.804;4.602;2023-06-14T11:36:49;5.82;;;2.92;;
14698;SDS011;7439;50.804;4.602;2023-06-14T11:39:16;6.85;;;3.42;;
14698;SDS011;7439;50.804;4.602;2023-06-14T11:41:44;3.10;;;2.80;;
14698;SDS011;7439;50.804;4.602;2023-06-14T11:44:14;4.15;;;3.13;;
14698;SDS011;7439;50.804;4.602;2023-06-14T11:46:41;2.75;;;2.53;;
14698;SDS011;7439;50.804;4.602;2023-06-14T11:49:08;5.85;;;3.25;;
14698;SDS011;7439;50.804;4.602;2023-06-14T11:51:36;3.53;;;3.00;;
14698;SDS011;7439;50.804;4.602;2023-06-14T11:54:04;3.97;;;3.22;;
14698;SDS011;7439;50.804;4.602;2023-06-14T11:56:32;4.90;;;3.03;;
14698;SDS011;7439;50.804;4.602;2023-06-14T11:59:01;2.90;;;2.70;;
14698;SDS011;7439;50.804;4.602;2023-06-14T12:01:35;5.13;;;3.25;;
14698;SDS011;7439;50.804;4.602;2023-06-14T12:04:03;3.50;;;2.70;;
14698;SDS011;7439;50.804;4.602;2023-06-14T12:06:31;4.00;;;2.80;;
14698;SDS011;7439;50.804;4.602;2023-06-14T12:09:03;5.38;;;2.80;;
14698;SDS011;7439;50.804;4.602;2023-06-14T12:11:32;4.18;;;2.17;;
14698;SDS011;7439;50.804;4.602;2023-06-14T12:14:00;2.42;;;2.22;;
14698;SDS011;7439;50.804;4.602;2023-06-14T12:16:31;3.08;;;2.78;;
14698;SDS011;7439;50.804;4.602;2023-06-14T12:19:08;5.90;;;2.58;;
14698;SDS011;7439;50.804;4.602;2023-06-14T12:21:36;3.97;;;2.63;;
14698;SDS011;7439;50.804;4.602;2023-06-14T12:24:05;3.55;;;2.90;;
14698;SDS011;7439;50.804;4.602;2023-06-14T12:26:33;3.60;;;2.78;;
14698;SDS011;7439;50.804;4.602;2023-06-14T12:29:00;3.10;;;2.60;;
14698;SDS011;7439;50.804;4.602;2023-06-14T12:31:28;6.82;;;3.15;;
14698;SDS011;7439;50.804;4.602;2023-06-14T12:33:57;5.45;;;3.00;;
14698;SDS011;7439;50.804;4.602;2023-06-14T12:36:24;3.70;;;3.10;;
14698;SDS011;7439;50.804;4.602;2023-06-14T12:38:53;4.65;;;3.08;;
14698;SDS011;7439;50.804;4.602;2023-06-14T12:41:20;2.83;;;2.63;;
14698;SDS011;7439;50.804;4.602;2023-06-14T12:43:49;3.33;;;2.70;;
14698;SDS011;7439;50.804;4.602;2023-06-14T12:46:17;5.85;;;2.85;;
14698;SDS011;7439;50.804;4.602;2023-06-14T12:48:44;7.18;;;3.60;;
14698;SDS011;7439;50.804;4.602;2023-06-14T12:51:16;3.75;;;2.88;;
14698;SDS011;7439;50.804;4.602;2023-06-14T12:53:43;3.67;;;2.78;;
14698;SDS011;7439;50.804;4.602;2023-06-14T12:56:14;3.63;;;2.60;;
14698;SDS011;7439;50.804;4.602;2023-06-14T12:58:42;2.95;;;2.47;;
14698;SDS011;7439;50.804;4.602;2023-06-14T13:01:09;4.25;;;2.85;;
14698;SDS011;7439;50.804;4.602;2023-06-14T13:03:39;3.45;;;2.70;;
14698;SDS011;7439;50.804;4.602;2023-06-14T13:06:06;3.38;;;2.85;;
14698;SDS011;7439;50.804;4.602;2023-06-14T13:08:35;3.72;;;2.42;;
14698;SDS011;7439;50.804;4.602;2023-06-14T13:11:02;3.03;;;2.72;;
14698;SDS011;7439;50.804;4.602;2023-06-14T13:13:30;2.60;;;2.40;;
14698;SDS011;7439;50.804;4.602;2023-06-14T13:15:58;4.45;;;2.72;;
14698;SDS011;7439;50.804;4.602;2023-06-14T13:18:25;2.53;;;2.33;;
14698;SDS011;7439;50.804;4.602;2023-06-14T13:20:53;2.75;;;2.55;;
14698;SDS011;7439;50.804;4.602;2023-06-14T13:23:20;3.70;;;2.60;;
14698;SDS011;7439;50.804;4.602;2023-06-14T13:25:49;3.75;;;2.83;;
14698;SDS011;7439;50.804;4.602;2023-06-14T13:28:17;3.22;;;2.25;;
14698;SDS011;7439;50.804;4.602;2023-06-14T13:30:46;3.33;;;2.25;;
14698;SDS011;7439;50.804;4.602;2023-06-14T13:33:13;4.40;;;2.00;;
14698;SDS011;7439;50.804;4.602;2023-06-14T13:35:41;3.10;;;2.30;;
14698;SDS011;7439;50.804;4.602;2023-06-14T13:38:09;2.35;;;2.20;;
14698;SDS011;7439;50.804;4.602;2023-06-14T13:40:36;2.70;;;2.30;;
14698;SDS011;7439;50.804;4.602;2023-06-14T13:43:05;3.40;;;2.00;;
14698;SDS011;7439;50.804;4.602;2023-06-14T13:45:32;2.50;;;1.95;;
14698;SDS011;7439;50.804;4.602;2023-06-14T13:48:00;2.22;;;1.92;;
14698;SDS011;7439;50.804;4.602;2023-06-14T13:50:28;2.47;;;2.00;;
14698;SDS011;7439;50.804;4.602;2023-06-14T13:52:55;3.45;;;1.80;;
14698;SDS011;7439;50.804;4.602;2023-06-14T13:55:22;2.00;;;1.90;;
14698;SDS011;7439;50.804;4.602;2023-06-14T13:57:50;1.85;;;1.63;;
14698;SDS011;7439;50.804;4.602;2023-06-14T14:00:19;3.80;;;2.00;;
14698;SDS011;7439;50.804;4.602;2023-06-14T14:02:47;5.43;;;1.95;;
14698;SDS011;7439;50.804;4.602;2023-06-14T14:05:15;1.58;;;1.48;;
14698;SDS011;7439;50.804;4.602;2023-06-14T14:07:43;3.30;;;1.95;;
14698;SDS011;7439;50.804;4.602;2023-06-14T14:10:10;5.00;;;1.90;;
14698;SDS011;7439;50.804;4.602;2023-06-14T14:12:39;2.13;;;1.80;;
14698;SDS011;7439;50.804;4.602;2023-06-14T14:15:07;3.30;;;1.87;;
14698;SDS011;7439;50.804;4.602;2023-06-14T14:17:39;4.13;;;1.87;;
14698;SDS011;7439;50.804;4.602;2023-06-14T14:20:07;3.50;;;1.67;;
14698;SDS011;7439;50.804;4.602;2023-06-14T14:22:34;2.07;;;1.90;;
14698;SDS011;7439;50.804;4.602;2023-06-14T14:25:02;2.70;;;1.60;;
14698;SDS011;7439;50.804;4.602;2023-06-14T14:27:29;2.43;;;1.63;;
14698;SDS011;7439;50.804;4.602;2023-06-14T14:29:57;3.33;;;2.03;;
14698;SDS011;7439;50.804;4.602;2023-06-14T14:32:24;4.60;;;2.00;;
14698;SDS011;7439;50.804;4.602;2023-06-14T14:34:53;1.90;;;1.80;;
14698;SDS011;7439;50.804;4.602;2023-06-14T14:37:20;4.23;;;1.93;;
14698;SDS011;7439;50.804;4.602;2023-06-14T14:39:50;3.10;;;1.83;;
14698;SDS011;7439;50.804;4.602;2023-06-14T14:42:17;3.37;;;1.53;;
14698;SDS011;7439;50.804;4.602;2023-06-14T14:44:45;2.00;;;1.80;;
14698;SDS011;7439;50.804;4.602;2023-06-14T14:47:12;2.60;;;2.10;;
14698;SDS011;7439;50.804;4.602;2023-06-14T14:49:39;3.60;;;2.00;;
14698;SDS011;7439;50.804;4.602;2023-06-14T14:52:08;2.43;;;1.87;;
14698;SDS011;7439;50.804;4.602;2023-06-14T14:54:36;2.33;;;1.80;;
14698;SDS011;7439;50.804;4.602;2023-06-14T14:57:04;1.87;;;1.77;;
14698;SDS011;7439;50.804;4.602;2023-06-14T14:59:31;3.73;;;2.00;;
14698;SDS011;7439;50.804;4.602;2023-06-14T15:01:59;2.40;;;1.90;;
14698;SDS011;7439;50.804;4.602;2023-06-14T15:04:26;3.63;;;1.97;;
14698;SDS011;7439;50.804;4.602;2023-06-14T15:06:54;3.00;;;2.20;;
14698;SDS011;7439;50.804;4.602;2023-06-14T15:09:23;3.33;;;2.03;;
14698;SDS011;7439;50.804;4.602;2023-06-14T15:11:51;1.70;;;1.60;;
14698;SDS011;7439;50.804;4.602;2023-06-14T15:14:20;2.30;;;2.10;;
14698;SDS011;7439;50.804;4.602;2023-06-14T15:16:49;3.57;;;2.20;;
14698;SDS011;7439;50.804;4.602;2023-06-14T15:19:17;2.20;;;2.00;;
14698;SDS011;7439;50.804;4.602;2023-06-14T15:21:45;2.27;;;1.97;;
14698;SDS011;7439;50.804;4.602;2023-06-14T15:24:12;5.03;;;2.13;;
14698;SDS011;7439;50.804;4.602;2023-06-14T15:26:41;4.03;;;2.07;;
14698;SDS011;7439;50.804;4.602;2023-06-14T15:29:08;5.47;;;2.27;;
14698;SDS011;7439;50.804;4.602;2023-06-14T15:31:36;3.07;;;2.00;;
14698;SDS011;7439;50.804;4.602;2023-06-14T15:34:03;3.60;;;2.23;;
14698;SDS011;7439;50.804;4.602;2023-06-14T15:36:31;2.10;;;1.87;;
14698;SDS011;7439;50.804;4.602;2023-06-14T15:38:59;2.90;;;1.90;;
14698;SDS011;7439;50.804;4.602;2023-06-14T15:41:26;3.33;;;2.20;;
14698;SDS011;7439;50.804;4.602;2023-06-14T15:43:55;2.20;;;2.00;;
14698;SDS011;7439;50.804;4.602;2023-06-14T15:46:22;2.20;;;2.00;;
14698;SDS011;7439;50.804;4.602;2023-06-14T15:48:50;5.03;;;1.90;;